Back to Top

Language: 

My Weather Underground Personal Weather Station Historical Data with Graphs...

Delerius Weather Station Historical Data
Daily Summary for July 8, 2017 Units:  English    Metric   Both
« Previous Day
Next Day »
Daily Weekly Monthly Yearly Custom
  High: Low: Average:
Temperature: 73.6 °F 50.2 °F 63.1 °F
Dew Point: 56.9 °F 47.1 °F 51.2 °F
Humidity: 94 % 41 % 67 %
Wind Speed: 11.0 mph 0.0 mph 5.3 mph
Wind Gust: 20.0 mph - -
Wind:- - WNW
Pressure: 30.10 in 30.00 in -
Precipitation: 0.00 in    
Historical Graphs
 
 
Tabular Data for July 8, 2017
Time Temperature Dew Point Pressure Wind Wind Speed Wind Gust Humidity Rainfall Rate (Hourly) solar Conditions
00:00 60.8 °F 56.9 °F 30.03 in WNW 6.0 mph 11.0 mph 87 % 0.00 in 0 W/m2
00:05 60.8 °F 56.9 °F 30.03 in WNW 6.0 mph 10.0 mph 87 % 0.00 in 0 W/m2
00:10 60.8 °F 56.9 °F 30.03 in WNW 5.0 mph 9.0 mph 87 % 0.00 in 0 W/m2
00:15 60.8 °F 56.9 °F 30.03 in WNW 5.0 mph 9.0 mph 87 % 0.00 in 0 W/m2
00:20 60.8 °F 56.9 °F 30.03 in WNW 5.0 mph 8.0 mph 87 % 0.00 in 0 W/m2
00:25 60.6 °F 56.7 °F 30.03 in WNW 5.0 mph 8.0 mph 87 % 0.00 in 0 W/m2
00:30 60.6 °F 56.7 °F 30.03 in WNW 5.0 mph 9.0 mph 87 % 0.00 in 0 W/m2
00:35 60.4 °F 56.6 °F 30.03 in WNW 5.0 mph 9.0 mph 87 % 0.00 in 0 W/m2
00:40 60.4 °F 56.6 °F 30.03 in WNW 4.0 mph 9.0 mph 87 % 0.00 in 0 W/m2
00:45 60.3 °F 56.4 °F 30.03 in West 4.0 mph 8.0 mph 87 % 0.00 in 0 W/m2
00:50 60.1 °F 56.2 °F 30.03 in West 4.0 mph 9.0 mph 87 % 0.00 in 0 W/m2
00:55 59.9 °F 56.3 °F 30.03 in West 4.0 mph 9.0 mph 88 % 0.00 in 0 W/m2
01:00 59.7 °F 55.8 °F 30.03 in WNW 5.0 mph 10.0 mph 87 % 0.00 in 0 W/m2
01:05 59.5 °F 55.7 °F 30.03 in WNW 6.0 mph 10.0 mph 87 % 0.00 in 0 W/m2
01:06 59.5 °F 55.7 °F 30.03 in WNW 6.0 mph 10.0 mph 87 % 0.00 in 0 W/m2
01:11 59.4 °F 55.5 °F 30.03 in WNW 7.0 mph 11.0 mph 87 % 0.00 in 0 W/m2
01:16 59.4 °F 55.5 °F 30.03 in WNW 6.0 mph 11.0 mph 87 % 0.00 in 0 W/m2
01:21 59.4 °F 55.2 °F 30.04 in WNW 5.0 mph 9.0 mph 86 % 0.00 in 0 W/m2
01:26 59.4 °F 54.8 °F 30.04 in WNW 5.0 mph 10.0 mph 85 % 0.00 in 0 W/m2
01:31 59.4 °F 54.8 °F 30.04 in WNW 5.0 mph 10.0 mph 85 % 0.00 in 0 W/m2
01:36 59.2 °F 54.7 °F 30.04 in West 4.0 mph 9.0 mph 85 % 0.00 in 0 W/m2
01:41 58.8 °F 54.3 °F 30.04 in West 4.0 mph 8.0 mph 85 % 0.00 in 0 W/m2
01:46 58.6 °F 54.1 °F 30.04 in West 4.0 mph 8.0 mph 85 % 0.00 in 0 W/m2
01:51 58.3 °F 53.8 °F 30.04 in WNW 4.0 mph 8.0 mph 85 % 0.00 in 0 W/m2
01:56 57.9 °F 53.1 °F 30.04 in WNW 4.0 mph 10.0 mph 84 % 0.00 in 0 W/m2
02:01 57.7 °F 52.9 °F 30.04 in WNW 4.0 mph 10.0 mph 84 % 0.00 in 0 W/m2
02:06 57.4 °F 52.6 °F 30.05 in WNW 4.0 mph 9.0 mph 84 % 0.00 in 0 W/m2
02:11 57.0 °F 52.2 °F 30.05 in NW 5.0 mph 9.0 mph 84 % 0.00 in 0 W/m2
02:16 56.8 °F 52.1 °F 30.05 in NW 6.0 mph 11.0 mph 84 % 0.00 in 0 W/m2
02:21 56.7 °F 52.2 °F 30.05 in NW 7.0 mph 12.0 mph 85 % 0.00 in 0 W/m2
02:26 56.5 °F 52.0 °F 30.05 in NW 6.0 mph 12.0 mph 85 % 0.00 in 0 W/m2
02:31 56.1 °F 51.7 °F 30.05 in NW 6.0 mph 11.0 mph 85 % 0.00 in 0 W/m2
02:36 55.9 °F 51.8 °F 30.05 in NW 5.0 mph 9.0 mph 86 % 0.00 in 0 W/m2
02:41 55.8 °F 51.6 °F 30.05 in NW 5.0 mph 8.0 mph 86 % 0.00 in 0 W/m2
02:46 55.6 °F 51.5 °F 30.05 in WNW 3.0 mph 8.0 mph 86 % 0.00 in 0 W/m2
02:51 55.4 °F 51.3 °F 30.06 in NW 2.0 mph 7.0 mph 86 % 0.00 in 0 W/m2
02:56 55.2 °F 51.4 °F 30.06 in WNW 3.0 mph 8.0 mph 87 % 0.00 in 0 W/m2
03:02 55.0 °F 51.2 °F 30.06 in WNW 5.0 mph 9.0 mph 87 % 0.00 in 0 W/m2
03:07 54.9 °F 51.1 °F 30.06 in WNW 5.0 mph 9.0 mph 87 % 0.00 in 0 W/m2
03:12 54.7 °F 50.9 °F 30.06 in WNW 4.0 mph 9.0 mph 87 % 0.00 in 0 W/m2
03:17 54.5 °F 51.0 °F 30.06 in NW 3.0 mph 8.0 mph 88 % 0.00 in 0 W/m2
03:22 54.3 °F 50.8 °F 30.06 in NW 3.0 mph 6.0 mph 88 % 0.00 in 0 W/m2
03:27 54.1 °F 50.7 °F 30.06 in NW 3.0 mph 6.0 mph 88 % 0.00 in 0 W/m2
03:32 54.0 °F 50.8 °F 30.06 in NW 3.0 mph 5.0 mph 89 % 0.00 in 0 W/m2
03:37 54.0 °F 50.5 °F 30.06 in NW 2.0 mph 5.0 mph 88 % 0.00 in 0 W/m2
03:42 53.8 °F 50.3 °F 30.06 in NW 1.0 mph 3.0 mph 88 % 0.00 in 0 W/m2
03:47 53.4 °F 50.3 °F 30.06 in Calm   2.0 mph 89 % 0.00 in 0 W/m2
03:52 53.2 °F 50.1 °F 30.06 in NW 1.0 mph 4.0 mph 89 % 0.00 in 0 W/m2
03:57 53.1 °F 49.9 °F 30.06 in NW 1.0 mph 4.0 mph 89 % 0.00 in 0 W/m2
04:02 52.7 °F 49.5 °F 30.06 in Calm   3.0 mph 89 % 0.00 in 0 W/m2
04:07 52.5 °F 49.4 °F 30.06 in Calm   1.0 mph 89 % 0.00 in 0 W/m2
04:12 52.2 °F 49.3 °F 30.06 in Calm   1.0 mph 90 % 0.00 in 0 W/m2
04:17 52.0 °F 49.1 °F 30.06 in Calm     90 % 0.00 in 0 W/m2
04:22 51.6 °F 48.8 °F 30.06 in Calm     90 % 0.00 in 0 W/m2
04:28 51.4 °F 48.6 °F 30.06 in Calm     90 % 0.00 in 0 W/m2
04:33 51.3 °F 48.7 °F 30.06 in Calm   4.0 mph 91 % 0.00 in 0 W/m2
04:38 51.3 °F 48.7 °F 30.06 in NW 1.0 mph 5.0 mph 91 % 0.00 in 0 W/m2
04:43 51.1 °F 48.8 °F 30.06 in NW 2.0 mph 5.0 mph 92 % 0.00 in 0 W/m2
04:48 51.1 °F 48.8 °F 30.06 in NW 2.0 mph 5.0 mph 92 % 0.00 in 5 W/m2
04:53 50.9 °F 48.7 °F 30.07 in NW 2.0 mph 4.0 mph 92 % 0.00 in 5 W/m2
04:58 50.9 °F 48.7 °F 30.07 in NW 3.0 mph 5.0 mph 92 % 0.00 in 7 W/m2
05:03 50.7 °F 48.5 °F 30.07 in NW 3.0 mph 5.0 mph 92 % 0.00 in 9 W/m2
05:08 50.5 °F 48.3 °F 30.07 in NW 2.0 mph 5.0 mph 92 % 0.00 in 11 W/m2
05:13 50.5 °F 48.3 °F 30.07 in NW 2.0 mph 5.0 mph 92 % 0.00 in 11 W/m2
05:18 50.4 °F 48.1 °F 30.07 in NW 2.0 mph 5.0 mph 92 % 0.00 in 12 W/m2
05:23 50.4 °F 48.1 °F 30.07 in NW 2.0 mph 5.0 mph 92 % 0.00 in 14 W/m2
05:28 50.2 °F 47.9 °F 30.07 in NW 2.0 mph 5.0 mph 92 % 0.00 in 16 W/m2
05:33 50.2 °F 48.2 °F 30.07 in NW 1.0 mph 4.0 mph 93 % 0.00 in 18 W/m2
05:38 50.2 °F 48.2 °F 30.07 in Calm   4.0 mph 93 % 0.00 in 19 W/m2
05:43 50.2 °F 48.2 °F 30.08 in Calm   1.0 mph 93 % 0.00 in 23 W/m2
05:48 50.2 °F 48.2 °F 30.08 in Calm   1.0 mph 93 % 0.00 in 23 W/m2
05:53 50.2 °F 48.2 °F 30.08 in Calm   1.0 mph 93 % 0.00 in 25 W/m2
05:58 50.2 °F 48.2 °F 30.08 in Calm     93 % 0.00 in 23 W/m2
06:03 50.4 °F 48.4 °F 30.08 in Calm     93 % 0.00 in 109 W/m2
06:08 50.4 °F 48.4 °F 30.08 in Calm     93 % 0.00 in 123 W/m2
06:09 50.4 °F 48.4 °F 30.08 in Calm     93 % 0.00 in 123 W/m2
06:14 50.5 °F 48.9 °F 30.08 in Calm     94 % 0.00 in 72 W/m2
06:19 51.3 °F 49.6 °F 30.08 in NW 1.0 mph 4.0 mph 94 % 0.00 in 53 W/m2
06:24 51.6 °F 49.7 °F 30.08 in NW 2.0 mph 5.0 mph 93 % 0.00 in 33 W/m2
06:29 52.0 °F 50.0 °F 30.08 in NW 1.0 mph 5.0 mph 93 % 0.00 in 51 W/m2
06:34 52.3 °F 50.1 °F 30.08 in NW 2.0 mph 5.0 mph 92 % 0.00 in 26 W/m2
06:39 52.5 °F 50.3 °F 30.08 in NW 2.0 mph 5.0 mph 92 % 0.00 in 32 W/m2
06:44 52.9 °F 50.6 °F 30.08 in WNW 2.0 mph 7.0 mph 92 % 0.00 in 35 W/m2
06:49 53.1 °F 50.5 °F 30.08 in WNW 3.0 mph 7.0 mph 91 % 0.00 in 30 W/m2
06:54 53.2 °F 50.4 °F 30.08 in WNW 3.0 mph 6.0 mph 90 % 0.00 in 30 W/m2
06:59 53.6 °F 50.4 °F 30.08 in WNW 3.0 mph 7.0 mph 89 % 0.00 in 32 W/m2
07:04 53.8 °F 50.3 °F 30.08 in WNW 3.0 mph 7.0 mph 88 % 0.00 in 32 W/m2
07:09 54.1 °F 50.4 °F 30.08 in WNW 2.0 mph 8.0 mph 87 % 0.00 in 35 W/m2
07:14 54.5 °F 50.4 °F 30.08 in WNW 3.0 mph 8.0 mph 86 % 0.00 in 39 W/m2
07:19 54.9 °F 50.4 °F 30.09 in WNW 3.0 mph 8.0 mph 85 % 0.00 in 72 W/m2
07:24 55.2 °F 50.1 °F 30.09 in NW 5.0 mph 11.0 mph 83 % 0.00 in 290 W/m2
07:29 55.9 °F 50.2 °F 30.09 in WNW 5.0 mph 11.0 mph 81 % 0.00 in 308 W/m2
07:34 56.5 °F 50.0 °F 30.09 in WNW 5.0 mph 9.0 mph 79 % 0.00 in 325 W/m2
07:39 57.4 °F 50.6 °F 30.09 in NW 4.0 mph 9.0 mph 78 % 0.00 in 339 W/m2
07:44 58.3 °F 50.7 °F 30.09 in NW 3.0 mph 8.0 mph 76 % 0.00 in 355 W/m2
07:49 58.8 °F 50.2 °F 30.09 in NW 4.0 mph 8.0 mph 73 % 0.00 in 369 W/m2
07:54 59.5 °F 50.9 °F 30.09 in NW 2.0 mph 8.0 mph 73 % 0.00 in 381 W/m2
07:59 60.3 °F 50.0 °F 30.09 in NNW 3.0 mph 8.0 mph 69 % 0.00 in 399 W/m2
08:04 60.6 °F 50.0 °F 30.09 in NNW 4.0 mph 12.0 mph 68 % 0.00 in 417 W/m2
08:09 61.0 °F 49.9 °F 30.09 in NW 5.0 mph 12.0 mph 67 % 0.00 in 432 W/m2
08:14 61.5 °F 50.1 °F 30.09 in NW 4.0 mph 9.0 mph 66 % 0.00 in 445 W/m2
08:19 62.1 °F 50.2 °F 30.09 in NW 4.0 mph 9.0 mph 65 % 0.00 in 461 W/m2
08:24 62.2 °F 49.1 °F 30.09 in NW 5.0 mph 10.0 mph 62 % 0.00 in 476 W/m2
08:29 61.9 °F 48.3 °F 30.09 in WNW 6.0 mph 11.0 mph 61 % 0.00 in 417 W/m2
08:34 62.1 °F 48.9 °F 30.09 in WNW 6.0 mph 11.0 mph 62 % 0.00 in 418 W/m2
08:39 62.4 °F 48.8 °F 30.09 in NW 5.0 mph 10.0 mph 61 % 0.00 in 517 W/m2
08:44 62.8 °F 48.2 °F 30.09 in NW 6.0 mph 12.0 mph 59 % 0.00 in 457 W/m2
08:49 62.8 °F 47.3 °F 30.09 in WNW 7.0 mph 12.0 mph 57 % 0.00 in 566 W/m2
08:54 62.8 °F 47.8 °F 30.10 in WNW 7.0 mph 12.0 mph 58 % 0.00 in 570 W/m2
08:59 62.2 °F 47.7 °F 30.10 in NW 7.0 mph 14.0 mph 59 % 0.00 in 592 W/m2
09:04 62.2 °F 47.7 °F 30.10 in NW 8.0 mph 14.0 mph 59 % 0.00 in 541 W/m2
09:09 62.4 °F 48.3 °F 30.09 in NNW 8.0 mph 13.0 mph 60 % 0.00 in 638 W/m2
09:14 62.8 °F 48.2 °F 30.09 in NNW 7.0 mph 13.0 mph 59 % 0.00 in 621 W/m2
09:19 63.1 °F 48.6 °F 30.09 in NW 6.0 mph 12.0 mph 59 % 0.00 in 703 W/m2
09:24 63.5 °F 48.9 °F 30.09 in NW 7.0 mph 13.0 mph 59 % 0.00 in 715 W/m2
09:29 64.0 °F 49.0 °F 30.09 in NW 7.0 mph 15.0 mph 58 % 0.00 in 703 W/m2
09:34 64.2 °F 49.1 °F 30.09 in NW 7.0 mph 15.0 mph 58 % 0.00 in 700 W/m2
09:39 64.6 °F 48.0 °F 30.09 in NW 8.0 mph 15.0 mph 55 % 0.00 in 696 W/m2
09:44 64.4 °F 48.4 °F 30.09 in NW 8.0 mph 15.0 mph 56 % 0.00 in 707 W/m2
09:49 64.6 °F 48.0 °F 30.09 in WNW 8.0 mph 16.0 mph 55 % 0.00 in 698 W/m2
09:54 64.2 °F 47.2 °F 30.09 in WNW 10.0 mph 18.0 mph 54 % 0.00 in 714 W/m2
09:59 64.0 °F 47.5 °F 30.09 in WNW 10.0 mph 18.0 mph 55 % 0.00 in 717 W/m2
10:04 64.4 °F 48.4 °F 30.09 in WNW 9.0 mph 16.0 mph 56 % 0.00 in 735 W/m2
10:09 64.8 °F 48.2 °F 30.09 in WNW 7.0 mph 14.0 mph 55 % 0.00 in 749 W/m2
10:14 65.1 °F 48.1 °F 30.09 in WNW 7.0 mph 16.0 mph 54 % 0.00 in 744 W/m2
10:19 65.1 °F 47.6 °F 30.10 in WNW 8.0 mph 16.0 mph 53 % 0.00 in 777 W/m2
10:24 64.9 °F 47.9 °F 30.10 in WNW 9.0 mph 15.0 mph 54 % 0.00 in 768 W/m2
10:29 64.8 °F 47.2 °F 30.09 in WNW 10.0 mph 15.0 mph 53 % 0.00 in 633 W/m2
10:34 64.8 °F 47.2 °F 30.10 in WNW 8.0 mph 15.0 mph 53 % 0.00 in 744 W/m2
10:39 65.1 °F 47.6 °F 30.09 in NW 5.0 mph 12.0 mph 53 % 0.00 in 693 W/m2
10:45 64.9 °F 47.9 °F 30.09 in West 7.0 mph 15.0 mph 54 % 0.00 in 814 W/m2
10:50 65.1 °F 48.5 °F 30.10 in West 8.0 mph 15.0 mph 55 % 0.00 in 803 W/m2
10:55 65.1 °F 47.1 °F 30.10 in West 8.0 mph 18.0 mph 52 % 0.00 in 824 W/m2
11:00 65.1 °F 47.6 °F 30.10 in West 10.0 mph 18.0 mph 53 % 0.00 in 823 W/m2
11:05 65.5 °F 47.9 °F 30.09 in WNW 10.0 mph 18.0 mph 53 % 0.00 in 835 W/m2
11:10 65.7 °F 48.1 °F 30.09 in West 9.0 mph 18.0 mph 53 % 0.00 in 863 W/m2
11:15 65.7 °F 47.5 °F 30.09 in West 9.0 mph 16.0 mph 52 % 0.00 in 844 W/m2
11:20 65.8 °F 47.7 °F 30.10 in West 10.0 mph 19.0 mph 52 % 0.00 in 853 W/m2
11:25 66.0 °F 47.4 °F 30.09 in WNW 9.0 mph 19.0 mph 51 % 0.00 in 809 W/m2
11:30 66.0 °F 48.4 °F 30.09 in West 8.0 mph 19.0 mph 53 % 0.00 in 784 W/m2
11:35 66.4 °F 47.7 °F 30.09 in West 9.0 mph 19.0 mph 51 % 0.00 in 788 W/m2
11:40 66.6 °F 48.4 °F 30.09 in West 8.0 mph 16.0 mph 52 % 0.00 in 798 W/m2
11:45 67.1 °F 47.8 °F 30.09 in WNW 8.0 mph 16.0 mph 50 % 0.00 in 733 W/m2
11:50 67.3 °F 48.0 °F 30.09 in NW 9.0 mph 16.0 mph 50 % 0.00 in 830 W/m2
11:55 67.5 °F 48.2 °F 30.09 in NW 7.0 mph 13.0 mph 50 % 0.00 in 911 W/m2
12:00 67.6 °F 48.9 °F 30.09 in NW 6.0 mph 13.0 mph 51 % 0.00 in 823 W/m2
12:05 68.0 °F 48.7 °F 30.09 in NW 6.0 mph 13.0 mph 50 % 0.00 in 858 W/m2
12:10 68.2 °F 49.4 °F 30.09 in WNW 6.0 mph 11.0 mph 51 % 0.00 in 659 W/m2
12:15 68.2 °F 49.4 °F 30.09 in West 6.0 mph 11.0 mph 51 % 0.00 in 991 W/m2
12:20 68.2 °F 48.3 °F 30.09 in West 7.0 mph 13.0 mph 49 % 0.00 in 898 W/m2
12:25 68.4 °F 48.5 °F 30.09 in WNW 8.0 mph 15.0 mph 49 % 0.00 in 937 W/m2
12:30 68.7 °F 49.3 °F 30.09 in WNW 7.0 mph 15.0 mph 50 % 0.00 in 949 W/m2
12:35 68.9 °F 48.9 °F 30.09 in NW 5.0 mph 11.0 mph 49 % 0.00 in 919 W/m2
12:40 68.9 °F 49.5 °F 30.09 in NW 6.0 mph 14.0 mph 50 % 0.00 in 933 W/m2
12:45 69.3 °F 49.8 °F 30.09 in WNW 8.0 mph 14.0 mph 50 % 0.00 in 884 W/m2
12:50 69.4 °F 49.4 °F 30.08 in WNW 8.0 mph 14.0 mph 49 % 0.00 in 849 W/m2
12:55 70.0 °F 50.5 °F 30.09 in West 7.0 mph 14.0 mph 50 % 0.00 in 898 W/m2
13:00 70.2 °F 50.1 °F 30.08 in WNW 9.0 mph 14.0 mph 49 % 0.00 in 858 W/m2
13:05 69.8 °F 49.2 °F 30.08 in West 8.0 mph 14.0 mph 48 % 0.00 in 714 W/m2
13:10 69.6 °F 49.6 °F 30.08 in West 7.0 mph 13.0 mph 49 % 0.00 in 909 W/m2
13:15 70.0 °F 51.0 °F 30.08 in West 6.0 mph 13.0 mph 51 % 0.00 in 963 W/m2
13:20 70.3 °F 49.7 °F 30.08 in West 7.0 mph 14.0 mph 48 % 0.00 in 708 W/m2
13:25 70.3 °F 49.1 °F 30.08 in West 10.0 mph 15.0 mph 47 % 0.00 in 770 W/m2
13:31 70.2 °F 49.5 °F 30.08 in West 8.0 mph 15.0 mph 48 % 0.00 in 967 W/m2
13:36 70.3 °F 49.7 °F 30.08 in West 6.0 mph 11.0 mph 48 % 0.00 in 833 W/m2
13:41 70.5 °F 49.9 °F 30.08 in West 8.0 mph 15.0 mph 48 % 0.00 in 868 W/m2
13:46 70.3 °F 50.3 °F 30.07 in WSW 8.0 mph 15.0 mph 49 % 0.00 in 888 W/m2
13:51 70.3 °F 50.3 °F 30.07 in WSW 8.0 mph 15.0 mph 49 % 0.00 in 872 W/m2
13:56 70.7 °F 49.5 °F 30.07 in WSW 8.0 mph 15.0 mph 47 % 0.00 in 918 W/m2
14:01 70.9 °F 49.1 °F 30.07 in WSW 8.0 mph 14.0 mph 46 % 0.00 in 833 W/m2
14:06 70.5 °F 49.3 °F 30.07 in WSW 9.0 mph 16.0 mph 47 % 0.00 in 946 W/m2
14:11 70.3 °F 49.1 °F 30.07 in WSW 9.0 mph 16.0 mph 47 % 0.00 in 905 W/m2
14:16 70.5 °F 50.4 °F 30.07 in WSW 8.0 mph 14.0 mph 49 % 0.00 in 849 W/m2
14:21 70.9 °F 50.2 °F 30.06 in WSW 8.0 mph 14.0 mph 48 % 0.00 in 817 W/m2
14:26 71.4 °F 50.1 °F 30.06 in WSW 8.0 mph 14.0 mph 47 % 0.00 in 715 W/m2
14:31 71.8 °F 49.3 °F 30.06 in West 7.0 mph 13.0 mph 45 % 0.00 in 758 W/m2
14:36 72.0 °F 48.2 °F 30.06 in West 7.0 mph 13.0 mph 43 % 0.00 in 824 W/m2
14:41 72.5 °F 48.1 °F 30.06 in WNW 7.0 mph 15.0 mph 42 % 0.00 in 844 W/m2
14:46 72.7 °F 48.3 °F 30.06 in West 9.0 mph 15.0 mph 42 % 0.00 in 698 W/m2
14:51 72.5 °F 47.5 °F 30.06 in West 9.0 mph 15.0 mph 41 % 0.00 in 824 W/m2
14:56 72.5 °F 48.7 °F 30.06 in WNW 9.0 mph 15.0 mph 43 % 0.00 in 777 W/m2
15:01 72.9 °F 49.7 °F 30.06 in NW 9.0 mph 15.0 mph 44 % 0.00 in 861 W/m2
15:06 72.7 °F 48.9 °F 30.05 in NW 8.0 mph 15.0 mph 43 % 0.00 in 649 W/m2
15:11 72.3 °F 49.2 °F 30.05 in West 9.0 mph 20.0 mph 44 % 0.00 in 782 W/m2
15:13 72.3 °F 49.2 °F 30.05 in West 10.0 mph 20.0 mph 44 % 0.00 in 824 W/m2
15:18 72.5 °F 49.3 °F 30.05 in West 10.0 mph 20.0 mph 44 % 0.00 in 749 W/m2
15:23 72.5 °F 49.3 °F 30.05 in West 9.0 mph 19.0 mph 44 % 0.00 in 800 W/m2
15:28 72.7 °F 49.5 °F 30.05 in WNW 9.0 mph 19.0 mph 44 % 0.00 in 761 W/m2
15:33 72.9 °F 50.3 °F 30.05 in WNW 9.0 mph 16.0 mph 45 % 0.00 in 777 W/m2
15:38 72.7 °F 49.5 °F 30.05 in West 9.0 mph 16.0 mph 44 % 0.00 in 694 W/m2
15:43 72.9 °F 49.7 °F 30.05 in West 9.0 mph 16.0 mph 44 % 0.00 in 680 W/m2
15:48 72.9 °F 49.7 °F 30.05 in WNW 9.0 mph 15.0 mph 44 % 0.00 in 738 W/m2
15:53 72.9 °F 49.7 °F 30.05 in WNW 9.0 mph 18.0 mph 44 % 0.00 in 696 W/m2
15:58 73.0 °F 50.4 °F 30.05 in WNW 10.0 mph 19.0 mph 45 % 0.00 in 726 W/m2
16:03 73.0 °F 51.0 °F 30.05 in WNW 10.0 mph 19.0 mph 46 % 0.00 in 712 W/m2
16:08 73.2 °F 51.2 °F 30.05 in WNW 10.0 mph 16.0 mph 46 % 0.00 in 635 W/m2
16:13 73.4 °F 51.4 °F 30.05 in WNW 9.0 mph 15.0 mph 46 % 0.00 in 654 W/m2
16:18 73.4 °F 51.9 °F 30.05 in WNW 8.0 mph 13.0 mph 47 % 0.00 in 643 W/m2
16:23 73.2 °F 51.8 °F 30.04 in WNW 8.0 mph 19.0 mph 47 % 0.00 in 536 W/m2
16:28 73.2 °F 51.8 °F 30.04 in NW 9.0 mph 19.0 mph 47 % 0.00 in 462 W/m2
16:33 73.2 °F 52.3 °F 30.04 in WNW 8.0 mph 15.0 mph 48 % 0.00 in 675 W/m2
16:38 73.2 °F 52.3 °F 30.04 in WNW 8.0 mph 12.0 mph 48 % 0.00 in 668 W/m2
16:43 73.4 °F 52.5 °F 30.04 in WNW 8.0 mph 14.0 mph 48 % 0.00 in 691 W/m2
16:48 73.6 °F 52.7 °F 30.04 in NW 9.0 mph 14.0 mph 48 % 0.00 in 207 W/m2
16:53 73.2 °F 52.9 °F 30.04 in WNW 8.0 mph 15.0 mph 49 % 0.00 in 645 W/m2
16:54 73.2 °F 52.9 °F 30.03 in WNW 8.0 mph 15.0 mph 49 % 0.00 in 645 W/m2
16:59 73.0 °F 52.2 °F 30.04 in WNW 9.0 mph 15.0 mph 48 % 0.00 in 199 W/m2
17:04 72.5 °F 52.8 °F 30.03 in WNW 8.0 mph 13.0 mph 50 % 0.00 in 232 W/m2
17:09 72.3 °F 52.6 °F 30.03 in WNW 7.0 mph 13.0 mph 50 % 0.00 in 214 W/m2
17:14 72.1 °F 53.0 °F 30.03 in WNW 7.0 mph 13.0 mph 51 % 0.00 in 225 W/m2
17:19 72.0 °F 52.8 °F 30.03 in West 8.0 mph 13.0 mph 51 % 0.00 in 163 W/m2
17:24 72.0 °F 53.9 °F 30.03 in West 7.0 mph 12.0 mph 53 % 0.00 in 211 W/m2
17:29 72.0 °F 53.4 °F 30.03 in WNW 8.0 mph 14.0 mph 52 % 0.00 in 197 W/m2
17:34 71.8 °F 53.2 °F 30.03 in WNW 8.0 mph 14.0 mph 52 % 0.00 in 151 W/m2
17:39 71.8 °F 53.7 °F 30.02 in West 7.0 mph 14.0 mph 53 % 0.00 in 158 W/m2
17:44 71.8 °F 53.7 °F 30.02 in WNW 9.0 mph 16.0 mph 53 % 0.00 in 139 W/m2
17:49 71.8 °F 53.7 °F 30.02 in WNW 10.0 mph 16.0 mph 53 % 0.00 in 202 W/m2
17:54 71.4 °F 53.4 °F 30.02 in WNW 9.0 mph 14.0 mph 53 % 0.00 in 218 W/m2
17:59 71.4 °F 53.4 °F 30.02 in West 8.0 mph 16.0 mph 53 % 0.00 in 174 W/m2
18:04 71.2 °F 53.2 °F 30.02 in WNW 9.0 mph 16.0 mph 53 % 0.00 in 163 W/m2
18:06 71.1 °F 53.6 °F 30.02 in WNW 10.0 mph 16.0 mph 54 % 0.00 in 408 W/m2
18:11 71.1 °F 53.6 °F 30.02 in WNW 9.0 mph 16.0 mph 54 % 0.00 in 125 W/m2
18:16 70.9 °F 53.4 °F 30.02 in WNW 10.0 mph 18.0 mph 54 % 0.00 in 148 W/m2
18:21 70.9 °F 53.4 °F 30.01 in WNW 11.0 mph 19.0 mph 54 % 0.00 in 329 W/m2
18:26 70.7 °F 53.2 °F 30.01 in WNW 10.0 mph 19.0 mph 54 % 0.00 in 406 W/m2
18:31 70.7 °F 53.7 °F 30.01 in West 9.0 mph 18.0 mph 55 % 0.00 in 123 W/m2
18:36 70.7 °F 53.7 °F 30.01 in West 8.0 mph 18.0 mph 55 % 0.00 in 183 W/m2
18:41 70.5 °F 54.5 °F 30.01 in WNW 8.0 mph 12.0 mph 57 % 0.00 in 302 W/m2
18:46 70.5 °F 54.5 °F 30.01 in WNW 7.0 mph 13.0 mph 57 % 0.00 in 285 W/m2
18:51 70.5 °F 54.1 °F 30.01 in WNW 8.0 mph 13.0 mph 56 % 0.00 in 227 W/m2
18:56 70.5 °F 54.5 °F 30.01 in WNW 9.0 mph 13.0 mph 57 % 0.00 in 258 W/m2
19:01 70.3 °F 54.4 °F 30.01 in WNW 8.0 mph 13.0 mph 57 % 0.00 in 299 W/m2
19:06 70.5 °F 54.5 °F 30.01 in West 7.0 mph 14.0 mph 57 % 0.00 in 304 W/m2
19:11 70.5 °F 54.5 °F 30.02 in WNW 8.0 mph 14.0 mph 57 % 0.00 in 169 W/m2
19:16 70.3 °F 54.4 °F 30.02 in WNW 9.0 mph 14.0 mph 57 % 0.00 in 258 W/m2
19:21 70.2 °F 54.7 °F 30.02 in WNW 9.0 mph 14.0 mph 58 % 0.00 in 227 W/m2
19:26 70.2 °F 54.2 °F 30.02 in WNW 8.0 mph 16.0 mph 57 % 0.00 in 204 W/m2
19:31 70.0 °F 54.5 °F 30.02 in WNW 8.0 mph 16.0 mph 58 % 0.00 in 218 W/m2
19:36 70.0 °F 54.5 °F 30.02 in West 7.0 mph 12.0 mph 58 % 0.00 in 178 W/m2
19:41 69.6 °F 54.7 °F 30.02 in WNW 7.0 mph 12.0 mph 59 % 0.00 in 63 W/m2
19:46 69.3 °F 54.3 °F 30.02 in WNW 8.0 mph 12.0 mph 59 % 0.00 in 174 W/m2
19:51 69.3 °F 54.8 °F 30.02 in WNW 7.0 mph 12.0 mph 60 % 0.00 in 163 W/m2
19:56 69.3 °F 54.8 °F 30.02 in WNW 7.0 mph 13.0 mph 60 % 0.00 in 151 W/m2
20:01 68.7 °F 54.7 °F 30.02 in WNW 8.0 mph 15.0 mph 61 % 0.00 in 141 W/m2
20:06 68.5 °F 55.0 °F 30.02 in WNW 8.0 mph 15.0 mph 62 % 0.00 in 76 W/m2
20:11 68.0 °F 54.5 °F 30.02 in WNW 8.0 mph 13.0 mph 62 % 0.00 in 56 W/m2
20:16 67.5 °F 54.0 °F 30.02 in WNW 8.0 mph 13.0 mph 62 % 0.00 in 46 W/m2
20:21 67.1 °F 54.1 °F 30.02 in WNW 7.0 mph 12.0 mph 63 % 0.00 in 47 W/m2
20:26 66.7 °F 54.2 °F 30.02 in WNW 7.0 mph 12.0 mph 64 % 0.00 in 40 W/m2
20:31 66.4 °F 53.8 °F 30.01 in WNW 7.0 mph 10.0 mph 64 % 0.00 in 37 W/m2
20:36 66.0 °F 53.5 °F 30.01 in WNW 6.0 mph 10.0 mph 64 % 0.00 in 35 W/m2
20:41 65.8 °F 53.7 °F 30.01 in WNW 6.0 mph 10.0 mph 65 % 0.00 in 35 W/m2
20:46 65.7 °F 54.0 °F 30.01 in WNW 5.0 mph 10.0 mph 66 % 0.00 in 33 W/m2
20:47 65.7 °F 54.0 °F 30.01 in WNW 5.0 mph 10.0 mph 66 % 0.00 in 33 W/m2
20:52 65.5 °F 53.8 °F 30.01 in WNW 4.0 mph 8.0 mph 66 % 0.00 in 30 W/m2
20:57 65.1 °F 53.5 °F 30.01 in WNW 5.0 mph 8.0 mph 66 % 0.00 in 25 W/m2
21:02 64.9 °F 53.7 °F 30.01 in NW 4.0 mph 7.0 mph 67 % 0.00 in 21 W/m2
21:07 64.8 °F 53.5 °F 30.01 in WNW 3.0 mph 6.0 mph 67 % 0.00 in 18 W/m2
21:12 64.4 °F 53.6 °F 30.01 in WNW 2.0 mph 6.0 mph 68 % 0.00 in 14 W/m2
21:17 64.0 °F 53.3 °F 30.01 in WNW 2.0 mph 5.0 mph 68 % 0.00 in 12 W/m2
21:22 63.9 °F 53.5 °F 30.01 in WNW 1.0 mph 5.0 mph 69 % 0.00 in 9 W/m2
21:27 63.5 °F 53.5 °F 30.01 in WNW 1.0 mph 5.0 mph 70 % 0.00 in 7 W/m2
21:28 63.5 °F 53.5 °F 30.01 in WNW 1.0 mph 5.0 mph 70 % 0.00 in 7 W/m2
21:33 63.1 °F 53.2 °F 30.01 in WNW 1.0 mph 3.0 mph 70 % 0.00 in 5 W/m2
21:38 63.0 °F 53.4 °F 30.01 in Calm   3.0 mph 71 % 0.00 in 0 W/m2
21:43 62.8 °F 53.2 °F 30.01 in Calm   2.0 mph 71 % 0.00 in 0 W/m2
21:48 62.4 °F 52.9 °F 30.01 in Calm   2.0 mph 71 % 0.00 in 0 W/m2
21:53 62.2 °F 53.1 °F 30.01 in Calm   1.0 mph 72 % 0.00 in 0 W/m2
21:58 62.1 °F 53.3 °F 30.01 in Calm   1.0 mph 73 % 0.00 in 0 W/m2
22:03 61.7 °F 53.0 °F 30.02 in Calm   1.0 mph 73 % 0.00 in 0 W/m2
22:08 61.3 °F 53.0 °F 30.01 in Calm     74 % 0.00 in 0 W/m2
22:13 61.2 °F 53.2 °F 30.01 in Calm     75 % 0.00 in 0 W/m2
22:18 60.8 °F 52.8 °F 30.01 in Calm     75 % 0.00 in 0 W/m2
22:23 60.4 °F 52.8 °F 30.01 in Calm     76 % 0.00 in 0 W/m2
22:28 60.3 °F 53.0 °F 30.01 in Calm     77 % 0.00 in 0 W/m2
22:33 60.3 °F 53.0 °F 30.01 in Calm     77 % 0.00 in 0 W/m2
22:38 60.1 °F 52.8 °F 30.01 in Calm     77 % 0.00 in 0 W/m2
22:43 59.9 °F 52.7 °F 30.01 in Calm   3.0 mph 77 % 0.00 in 0 W/m2
22:48 59.5 °F 52.7 °F 30.01 in Calm   3.0 mph 78 % 0.00 in 0 W/m2
22:53 59.4 °F 52.8 °F 30.01 in Calm   4.0 mph 79 % 0.00 in 0 W/m2
22:58 59.0 °F 52.5 °F 30.01 in Calm   4.0 mph 79 % 0.00 in 0 W/m2
23:03 58.8 °F 52.7 °F 30.01 in Calm   4.0 mph 80 % 0.00 in 0 W/m2
23:08 58.6 °F 52.5 °F 30.01 in WNW 1.0 mph 4.0 mph 80 % 0.00 in 0 W/m2
23:13 58.5 °F 52.3 °F 30.01 in WNW 2.0 mph 6.0 mph 80 % 0.00 in 0 W/m2
23:18 58.3 °F 52.5 °F 30.01 in WNW 3.0 mph 6.0 mph 81 % 0.00 in 0 W/m2
23:23 58.3 °F 52.5 °F 30.01 in WNW 4.0 mph 6.0 mph 81 % 0.00 in 0 W/m2
23:28 58.1 °F 52.3 °F 30.01 in WNW 3.0 mph 6.0 mph 81 % 0.00 in 0 W/m2
23:33 57.9 °F 52.1 °F 30.01 in WNW 2.0 mph 5.0 mph 81 % 0.00 in 0 W/m2
23:38 57.9 °F 52.1 °F 30.01 in WNW 2.0 mph 5.0 mph 81 % 0.00 in 0 W/m2
23:43 57.7 °F 52.3 °F 30.01 in WNW 2.0 mph 5.0 mph 82 % 0.00 in 0 W/m2
23:48 57.6 °F 52.1 °F 30.01 in WNW 1.0 mph 5.0 mph 82 % 0.00 in 0 W/m2
23:53 57.4 °F 51.9 °F 30.01 in Calm   2.0 mph 82 % 0.00 in 0 W/m2
23:58 57.0 °F 51.6 °F 30.00 in Calm     82 % 0.00 in 0 W/m2
Delerius-Weather
Compliments of Weather Underground - 2.25 mb

Data updates at regular intervals.